UAL155 PTKK-PTPN
Flight info
| Callsign | UAL155 |
|---|---|
| Flight time | 0h 59m |
| Altitude | 35000 |
| Route | MICNO R584 BIRUQ |
| Aircraft | A320/M-SDE3FGHIRWY/LB1 |
Departure
| Time | 2026-05-01 07:46 |
|---|---|
| Airport | Chuuk International Airport (PTKK) |
Arrival
| Time | 2026-05-01 08:45 |
|---|---|
| Airport | Pohnpei International Airport (PTPN) |
| Time | Latitude | Longitude | Altitude | Speed | Heading |
|---|---|---|---|---|---|
| 2026-05-01 07:36 | 7.45830 | 151.84142 | 20 ft | 0 kts | 227° |
| 2026-05-01 07:43 | 7.45824 | 151.84131 | 21 ft | 5 kts | 248° |
| 2026-05-01 07:43 | 7.45840 | 151.84095 | 19 ft | 7 kts | 310° |
| 2026-05-01 07:43 | 7.45901 | 151.84002 | 20 ft | 10 kts | 262° |
| 2026-05-01 07:44 | 7.45787 | 151.83876 | 19 ft | 15 kts | 226° |
| 2026-05-01 07:44 | 7.45628 | 151.83753 | 18 ft | 12 kts | 208° |
| 2026-05-01 07:45 | 7.45639 | 151.83715 | 18 ft | 7 kts | 41° |
| 2026-05-01 07:45 | 7.45644 | 151.83721 | 18 ft | 0 kts | 47° |
| 2026-05-01 07:45 | 7.45735 | 151.83823 | 21 ft | 56 kts | 48° |
| 2026-05-01 07:45 | 7.46167 | 151.84274 | 19 ft | 120 kts | 46° |
| 2026-05-01 07:46 | 7.46852 | 151.85005 | 72 ft | 160 kts | 48° |
| 2026-05-01 07:46 | 7.47590 | 151.85809 | 691 ft | 155 kts | 49° |
| 2026-05-01 07:46 | 7.48181 | 151.86419 | 1180 ft | 153 kts | 48° |
| 2026-05-01 07:47 | 7.48302 | 151.86543 | 1277 ft | 153 kts | 48° |
| 2026-05-01 07:47 | 7.49054 | 151.87313 | 1730 ft | 164 kts | 49° |
| 2026-05-01 07:47 | 7.49890 | 151.88187 | 1919 ft | 183 kts | 49° |
| 2026-05-01 07:47 | 7.50804 | 151.89164 | 2158 ft | 206 kts | 49° |
| 2026-05-01 07:48 | 7.52933 | 151.91581 | 2773 ft | 254 kts | 61° |
| 2026-05-01 07:48 | 7.53451 | 151.93302 | 3379 ft | 263 kts | 90° |
| 2026-05-01 07:48 | 7.53147 | 151.95120 | 4226 ft | 262 kts | 106° |
| 2026-05-01 07:49 | 7.52691 | 151.96832 | 5187 ft | 248 kts | 107° |
| 2026-05-01 07:49 | 7.51783 | 152.00155 | 6873 ft | 242 kts | 107° |
| 2026-05-01 07:49 | 7.51340 | 152.01775 | 7736 ft | 239 kts | 107° |
| 2026-05-01 07:50 | 7.50897 | 152.03393 | 8484 ft | 240 kts | 107° |
| 2026-05-01 07:50 | 7.50610 | 152.06761 | 9836 ft | 248 kts | 78° |
| 2026-05-01 07:50 | 7.51049 | 152.08453 | 10467 ft | 251 kts | 74° |
| 2026-05-01 07:51 | 7.51494 | 152.10152 | 11093 ft | 253 kts | 84° |
| 2026-05-01 07:51 | 7.51342 | 152.11914 | 11690 ft | 255 kts | 109° |
| 2026-05-01 07:51 | 7.50698 | 152.13599 | 12319 ft | 258 kts | 112° |
| 2026-05-01 07:52 | 7.49299 | 152.17121 | 12942 ft | 294 kts | 112° |
| 2026-05-01 07:52 | 7.48505 | 152.19110 | 13080 ft | 317 kts | 112° |
| 2026-05-01 07:52 | 7.47647 | 152.21265 | 13209 ft | 338 kts | 112° |
| 2026-05-01 07:53 | 7.45825 | 152.25871 | 13563 ft | 371 kts | 111° |
| 2026-05-01 07:53 | 7.44861 | 152.28313 | 13999 ft | 377 kts | 111° |
| 2026-05-01 07:53 | 7.43888 | 152.30786 | 14493 ft | 381 kts | 111° |
| 2026-05-01 07:53 | 7.42940 | 152.33293 | 14997 ft | 384 kts | 107° |
| 2026-05-01 07:54 | 7.42166 | 152.38639 | 15992 ft | 391 kts | 94° |
| 2026-05-01 07:55 | 7.41602 | 152.46935 | 17501 ft | 400 kts | 94° |
| 2026-05-01 07:55 | 7.41203 | 152.52575 | 18467 ft | 407 kts | 94° |
| 2026-05-01 07:56 | 7.40607 | 152.61202 | 19817 ft | 416 kts | 94° |
| 2026-05-01 07:56 | 7.40268 | 152.66060 | 20574 ft | 421 kts | 94° |
| 2026-05-01 07:57 | 7.40062 | 152.69011 | 21003 ft | 423 kts | 94° |
| 2026-05-01 07:57 | 7.39641 | 152.74967 | 21839 ft | 429 kts | 94° |
| 2026-05-01 07:58 | 7.39216 | 152.80994 | 22623 ft | 434 kts | 94° |
| 2026-05-01 07:58 | 7.38791 | 152.87103 | 23345 ft | 439 kts | 94° |
| 2026-05-01 07:59 | 7.38358 | 152.93274 | 23969 ft | 443 kts | 94° |
| 2026-05-01 07:59 | 7.37918 | 152.99481 | 24617 ft | 445 kts | 94° |
| 2026-05-01 08:00 | 7.37039 | 153.11962 | 25859 ft | 449 kts | 94° |
| 2026-05-01 08:01 | 7.36369 | 153.21377 | 26669 ft | 453 kts | 95° |
| 2026-05-01 08:01 | 7.36141 | 153.24558 | 26938 ft | 454 kts | 95° |
| 2026-05-01 08:01 | 7.35916 | 153.27737 | 27200 ft | 456 kts | 95° |
| 2026-05-01 08:02 | 7.35465 | 153.34138 | 27717 ft | 459 kts | 95° |
| 2026-05-01 08:02 | 7.35233 | 153.37347 | 27970 ft | 461 kts | 95° |
| 2026-05-01 08:03 | 7.34770 | 153.43801 | 28472 ft | 464 kts | 95° |
| 2026-05-01 08:03 | 7.34539 | 153.47051 | 28697 ft | 466 kts | 95° |
| 2026-05-01 08:03 | 7.34082 | 153.53531 | 29359 ft | 465 kts | 95° |
| 2026-05-01 08:04 | 7.33618 | 153.60024 | 30088 ft | 463 kts | 95° |
| 2026-05-01 08:04 | 7.33155 | 153.66484 | 30759 ft | 461 kts | 95° |
| 2026-05-01 08:05 | 7.32683 | 153.72905 | 31455 ft | 458 kts | 95° |
| 2026-05-01 08:05 | 7.32449 | 153.76094 | 31816 ft | 456 kts | 95° |
| 2026-05-01 08:05 | 7.32219 | 153.79278 | 32175 ft | 455 kts | 95° |
| 2026-05-01 08:06 | 7.31769 | 153.85621 | 32896 ft | 453 kts | 96° |
| 2026-05-01 08:06 | 7.31315 | 153.91937 | 33635 ft | 451 kts | 96° |
| 2026-05-01 08:07 | 7.30856 | 153.98181 | 34195 ft | 450 kts | 96° |
| 2026-05-01 08:07 | 7.30400 | 154.04433 | 34620 ft | 447 kts | 96° |
| 2026-05-01 08:08 | 7.30170 | 154.07556 | 34810 ft | 446 kts | 96° |
| 2026-05-01 08:09 | 7.29260 | 154.20138 | 34887 ft | 452 kts | 96° |
| 2026-05-01 08:09 | 7.28797 | 154.26458 | 34889 ft | 452 kts | 96° |
| 2026-05-01 08:10 | 7.27870 | 154.39085 | 34889 ft | 452 kts | 96° |
| 2026-05-01 08:11 | 7.26949 | 154.51683 | 34895 ft | 452 kts | 96° |
| 2026-05-01 08:12 | 7.26245 | 154.61162 | 34895 ft | 453 kts | 96° |
| 2026-05-01 08:13 | 7.25539 | 154.70657 | 34897 ft | 453 kts | 95° |
| 2026-05-01 08:13 | 7.24827 | 154.80160 | 34902 ft | 454 kts | 95° |
| 2026-05-01 08:14 | 7.24353 | 154.86496 | 34904 ft | 454 kts | 95° |
| 2026-05-01 08:14 | 7.23879 | 154.92831 | 34905 ft | 454 kts | 95° |
| 2026-05-01 08:15 | 7.23170 | 155.02340 | 34905 ft | 453 kts | 95° |
| 2026-05-01 08:16 | 7.22693 | 155.08664 | 34912 ft | 453 kts | 95° |
| 2026-05-01 08:16 | 7.22212 | 155.14994 | 34913 ft | 453 kts | 95° |
| 2026-05-01 08:17 | 7.21743 | 155.21272 | 34913 ft | 452 kts | 95° |
| 2026-05-01 08:17 | 7.21274 | 155.27597 | 34912 ft | 452 kts | 95° |
| 2026-05-01 08:18 | 7.20794 | 155.33917 | 34910 ft | 452 kts | 95° |
| 2026-05-01 08:19 | 7.19840 | 155.46548 | 34910 ft | 452 kts | 95° |
| 2026-05-01 08:19 | 7.19358 | 155.52815 | 34910 ft | 452 kts | 95° |
| 2026-05-01 08:20 | 7.18876 | 155.59142 | 34908 ft | 452 kts | 95° |
| 2026-05-01 08:20 | 7.18394 | 155.65459 | 34911 ft | 452 kts | 95° |
| 2026-05-01 08:21 | 7.17920 | 155.71771 | 34912 ft | 452 kts | 95° |
| 2026-05-01 08:21 | 7.17433 | 155.78083 | 34911 ft | 452 kts | 95° |
| 2026-05-01 08:22 | 7.16942 | 155.84395 | 34910 ft | 452 kts | 95° |
| 2026-05-01 08:22 | 7.16462 | 155.90701 | 34910 ft | 452 kts | 95° |
| 2026-05-01 08:23 | 7.15973 | 155.97011 | 34910 ft | 452 kts | 95° |
| 2026-05-01 08:23 | 7.15487 | 156.03275 | 34911 ft | 451 kts | 95° |
| 2026-05-01 08:24 | 7.15004 | 156.09547 | 34911 ft | 451 kts | 95° |
| 2026-05-01 08:24 | 7.14511 | 156.15877 | 34911 ft | 451 kts | 95° |
| 2026-05-01 08:25 | 7.14026 | 156.22181 | 34912 ft | 451 kts | 95° |
| 2026-05-01 08:25 | 7.13545 | 156.28473 | 34914 ft | 451 kts | 95° |
| 2026-05-01 08:26 | 7.13057 | 156.34762 | 34887 ft | 450 kts | 95° |
| 2026-05-01 08:26 | 7.12807 | 156.37903 | 34652 ft | 449 kts | 95° |
| 2026-05-01 08:26 | 7.12560 | 156.41032 | 34426 ft | 448 kts | 95° |
| 2026-05-01 08:26 | 7.12313 | 156.44158 | 34202 ft | 449 kts | 95° |
| 2026-05-01 08:27 | 7.12067 | 156.47298 | 33977 ft | 450 kts | 95° |
| 2026-05-01 08:27 | 7.11825 | 156.50438 | 33737 ft | 451 kts | 95° |
| 2026-05-01 08:27 | 7.11581 | 156.53589 | 33483 ft | 452 kts | 95° |
| 2026-05-01 08:27 | 7.11334 | 156.56751 | 33232 ft | 453 kts | 95° |
| 2026-05-01 08:28 | 7.11086 | 156.59913 | 32454 ft | 457 kts | 95° |
| 2026-05-01 08:28 | 7.10832 | 156.63128 | 31478 ft | 462 kts | 95° |
| 2026-05-01 08:28 | 7.10575 | 156.66370 | 30544 ft | 466 kts | 95° |
| 2026-05-01 08:28 | 7.10314 | 156.69655 | 29344 ft | 475 kts | 95° |
| 2026-05-01 08:29 | 7.10048 | 156.72985 | 28222 ft | 480 kts | 95° |
| 2026-05-01 08:29 | 7.09788 | 156.76270 | 27631 ft | 473 kts | 95° |
| 2026-05-01 08:29 | 7.09528 | 156.79556 | 26899 ft | 469 kts | 95° |
| 2026-05-01 08:29 | 7.09269 | 156.82821 | 26176 ft | 466 kts | 95° |
| 2026-05-01 08:30 | 7.09015 | 156.86057 | 25464 ft | 463 kts | 95° |
| 2026-05-01 08:30 | 7.08761 | 156.89278 | 24752 ft | 461 kts | 95° |
| 2026-05-01 08:30 | 7.08511 | 156.92487 | 24043 ft | 459 kts | 95° |
| 2026-05-01 08:30 | 7.08261 | 156.95677 | 23317 ft | 457 kts | 95° |
| 2026-05-01 08:31 | 7.08008 | 156.98862 | 22546 ft | 454 kts | 95° |
| 2026-05-01 08:31 | 7.07762 | 157.02009 | 21864 ft | 449 kts | 95° |
| 2026-05-01 08:31 | 7.07518 | 157.05129 | 21198 ft | 444 kts | 95° |
| 2026-05-01 08:31 | 7.07274 | 157.08217 | 20543 ft | 440 kts | 95° |
| 2026-05-01 08:32 | 7.07034 | 157.11232 | 19929 ft | 436 kts | 94° |
| 2026-05-01 08:32 | 7.06792 | 157.14260 | 19325 ft | 433 kts | 94° |
| 2026-05-01 08:32 | 7.06552 | 157.17270 | 18728 ft | 430 kts | 94° |
| 2026-05-01 08:32 | 7.06313 | 157.20265 | 18133 ft | 428 kts | 94° |
| 2026-05-01 08:33 | 7.06076 | 157.23246 | 17496 ft | 425 kts | 94° |
| 2026-05-01 08:33 | 7.05839 | 157.26206 | 16908 ft | 422 kts | 94° |
| 2026-05-01 08:33 | 7.05599 | 157.29146 | 16290 ft | 420 kts | 95° |
| 2026-05-01 08:33 | 7.05360 | 157.32062 | 15677 ft | 418 kts | 95° |
| 2026-05-01 08:34 | 7.05125 | 157.34973 | 15039 ft | 416 kts | 94° |
| 2026-05-01 08:34 | 7.04891 | 157.37868 | 14394 ft | 415 kts | 95° |
| 2026-05-01 08:34 | 7.04658 | 157.40753 | 13741 ft | 413 kts | 95° |
| 2026-05-01 08:34 | 7.04428 | 157.43638 | 13025 ft | 411 kts | 94° |
| 2026-05-01 08:35 | 7.04201 | 157.46491 | 12363 ft | 407 kts | 94° |
| 2026-05-01 08:35 | 7.03975 | 157.49306 | 11709 ft | 403 kts | 94° |
| 2026-05-01 08:35 | 7.03752 | 157.52111 | 11102 ft | 397 kts | 94° |
| 2026-05-01 08:35 | 7.03531 | 157.54862 | 10619 ft | 389 kts | 94° |
| 2026-05-01 08:36 | 7.03317 | 157.57504 | 10498 ft | 370 kts | 94° |
| 2026-05-01 08:36 | 7.03114 | 157.60029 | 10380 ft | 354 kts | 94° |
| 2026-05-01 08:36 | 7.02923 | 157.62417 | 10267 ft | 340 kts | 94° |
| 2026-05-01 08:36 | 7.02734 | 157.64752 | 10148 ft | 327 kts | 94° |
| 2026-05-01 08:37 | 7.02551 | 157.66994 | 10031 ft | 316 kts | 94° |
| 2026-05-01 08:37 | 7.02374 | 157.69163 | 9872 ft | 308 kts | 94° |
| 2026-05-01 08:37 | 7.02197 | 157.71304 | 9538 ft | 306 kts | 94° |
| 2026-05-01 08:37 | 7.01995 | 157.73429 | 9177 ft | 305 kts | 95° |
| 2026-05-01 08:38 | 7.01779 | 157.75541 | 8830 ft | 303 kts | 95° |
| 2026-05-01 08:38 | 7.01560 | 157.77648 | 8496 ft | 301 kts | 95° |
| 2026-05-01 08:38 | 7.01342 | 157.79735 | 8152 ft | 299 kts | 95° |
| 2026-05-01 08:38 | 7.01130 | 157.81792 | 7819 ft | 298 kts | 95° |
| 2026-05-01 08:39 | 7.00921 | 157.83861 | 7494 ft | 296 kts | 95° |
| 2026-05-01 08:39 | 7.00713 | 157.85914 | 7170 ft | 294 kts | 95° |
| 2026-05-01 08:39 | 7.00504 | 157.87957 | 6810 ft | 291 kts | 95° |
| 2026-05-01 08:39 | 7.00302 | 157.89969 | 6228 ft | 288 kts | 95° |
| 2026-05-01 08:40 | 6.99898 | 157.93952 | 5050 ft | 282 kts | 95° |
| 2026-05-01 08:40 | 6.99701 | 157.95906 | 4472 ft | 279 kts | 95° |
| 2026-05-01 08:40 | 6.99503 | 157.97836 | 3883 ft | 276 kts | 95° |
| 2026-05-01 08:41 | 6.99307 | 157.99765 | 3179 ft | 278 kts | 95° |
| 2026-05-01 08:41 | 6.99110 | 158.01694 | 2644 ft | 272 kts | 95° |
| 2026-05-01 08:41 | 6.98927 | 158.03485 | 2552 ft | 250 kts | 95° |
| 2026-05-01 08:41 | 6.98755 | 158.05157 | 2445 ft | 229 kts | 95° |
| 2026-05-01 08:42 | 6.98601 | 158.06681 | 2368 ft | 209 kts | 95° |
| 2026-05-01 08:42 | 6.98564 | 158.08096 | 2249 ft | 196 kts | 89° |
| 2026-05-01 08:42 | 6.98559 | 158.09441 | 2063 ft | 185 kts | 90° |
| 2026-05-01 08:42 | 6.98551 | 158.10676 | 1898 ft | 169 kts | 90° |
| 2026-05-01 08:43 | 6.98545 | 158.11838 | 1666 ft | 162 kts | 89° |
| 2026-05-01 08:43 | 6.98541 | 158.12936 | 1467 ft | 145 kts | 89° |
| 2026-05-01 08:43 | 6.98539 | 158.13909 | 1283 ft | 141 kts | 89° |
| 2026-05-01 08:43 | 6.98543 | 158.14890 | 1104 ft | 141 kts | 88° |
| 2026-05-01 08:44 | 6.98555 | 158.15865 | 892 ft | 137 kts | 88° |
| 2026-05-01 08:44 | 6.98544 | 158.16818 | 705 ft | 137 kts | 90° |
| 2026-05-01 08:44 | 6.98524 | 158.17782 | 498 ft | 140 kts | 87° |
| 2026-05-01 08:44 | 6.98529 | 158.18768 | 295 ft | 140 kts | 89° |
| 2026-05-01 08:45 | 6.98519 | 158.19741 | 115 ft | 136 kts | 90° |
| 2026-05-01 08:45 | 6.98507 | 158.20649 | 19 ft | 110 kts | 92° |
| 2026-05-01 08:45 | 6.98510 | 158.21139 | 18 ft | 46 kts | 91° |
| 2026-05-01 08:45 | 6.98508 | 158.21410 | 17 ft | 34 kts | 90° |
| 2026-05-01 08:46 | 6.98507 | 158.21632 | 18 ft | 31 kts | 89° |
| 2026-05-01 08:46 | 6.98490 | 158.21784 | 17 ft | 16 kts | 118° |
| 2026-05-01 08:46 | 6.98469 | 158.21866 | 18 ft | 11 kts | 62° |
| 2026-05-01 08:46 | 6.98506 | 158.21823 | 17 ft | 13 kts | 274° |
| 2026-05-01 08:47 | 6.98507 | 158.21695 | 17 ft | 24 kts | 270° |
| 2026-05-01 08:47 | 6.98507 | 158.21512 | 18 ft | 28 kts | 270° |
| 2026-05-01 08:47 | 6.98507 | 158.21379 | 17 ft | 30 kts | 270° |
| 2026-05-01 08:47 | 6.98507 | 158.21162 | 18 ft | 32 kts | 270° |
| 2026-05-01 08:48 | 6.98510 | 158.20932 | 18 ft | 34 kts | 270° |
| 2026-05-01 08:48 | 6.98513 | 158.20641 | 18 ft | 21 kts | 270° |
| 2026-05-01 08:48 | 6.98512 | 158.20539 | 18 ft | 23 kts | 269° |
| 2026-05-01 08:48 | 6.98511 | 158.20389 | 17 ft | 13 kts | 263° |
| 2026-05-01 08:49 | 6.98459 | 158.20359 | 19 ft | 10 kts | 176° |
| 2026-05-01 08:49 | 6.98379 | 158.20358 | 18 ft | 13 kts | 181° |
| 2026-05-01 08:49 | 6.98282 | 158.20357 | 20 ft | 11 kts | 173° |
| 2026-05-01 08:49 | 6.98236 | 158.20393 | 18 ft | 8 kts | 169° |
| 2026-05-01 08:50 | 6.98191 | 158.20395 | 18 ft | 0 kts | 178° |